Time;durP1;ratioP1;P1;durP2;ratioP2;P2;SDS_P1;SDS_P2;PMS_P1;PMS_P2;Temp;Humidity;BMP_temperature;BMP_pressure;BME280_temperature;BME280_humidity;BME280_pressure;Samples;Min_cycle;Max_cycle;Signal;HPM_P1;HPM_P2
2021/09/06 00:01:01;;;;;;;2.08;1.10;;;19.70;51.30;;;;;;5053172;28;20182;-82
2021/09/06 00:03:27;;;;;;;1.70;1.20;;;19.60;51.30;;;;;;5053436;28;20642;-80
2021/09/06 00:05:57;;;;;;;1.38;1.27;;;19.60;51.40;;;;;;5037409;28;20626;-81
2021/09/06 00:08:27;;;;;;;1.80;1.30;;;19.60;51.50;;;;;;5052797;28;20194;-83
2021/09/06 00:11:09;;;;;;;1.48;1.05;;;19.60;51.40;;;;;;5053259;28;20186;-81
2021/09/06 00:13:38;;;;;;;2.30;1.30;;;19.60;51.40;;;;;;5052093;28;20658;-80
2021/09/06 00:16:07;;;;;;;1.27;1.15;;;19.60;51.50;;;;;;5036468;28;20624;-80
2021/09/06 00:18:36;;;;;;;1.77;1.40;;;19.60;51.50;;;;;;5052650;28;20263;-81
2021/09/06 00:21:06;;;;;;;1.52;1.20;;;19.50;51.50;;;;;;5052857;28;20190;-80
2021/09/06 00:23:35;;;;;;;1.48;1.35;;;19.60;51.60;;;;;;5051768;28;20274;-81
2021/09/06 00:26:05;;;;;;;1.35;1.20;;;19.60;51.60;;;;;;5052306;28;20246;-80
2021/09/06 00:28:34;;;;;;;2.45;1.30;;;19.60;51.60;;;;;;5035817;28;20182;-82
2021/09/06 00:31:03;;;;;;;1.80;1.30;;;19.60;51.60;;;;;;5052781;28;20197;-81
2021/09/06 00:33:33;;;;;;;1.17;1.08;;;19.60;51.60;;;;;;5035995;28;20661;-80
2021/09/06 00:36:01;;;;;;;1.67;1.23;;;19.60;51.60;;;;;;5036360;28;20221;-81
2021/09/06 00:38:29;;;;;;;1.58;1.23;;;19.60;51.60;;;;;;5036166;28;20641;-81
2021/09/06 00:40:57;;;;;;;1.55;1.38;;;19.60;51.50;;;;;;5052742;28;20214;-82
2021/09/06 00:43:31;;;;;;;1.98;1.30;;;19.50;51.60;;;;;;5037217;28;20174;-80
2021/09/06 00:46:02;;;;;;;1.30;1.13;;;19.60;51.70;;;;;;5035778;28;20254;-84
2021/09/06 00:48:31;;;;;;;1.33;1.20;;;19.60;51.50;;;;;;5053010;28;20182;-81
2021/09/06 00:50:58;;;;;;;1.65;1.40;;;19.60;51.50;;;;;;5052557;28;20534;-82
2021/09/06 00:53:26;;;;;;;2.33;1.35;;;19.60;51.60;;;;;;5052229;28;20209;-82
2021/09/06 00:55:56;;;;;;;1.80;1.40;;;19.60;51.60;;;;;;5052641;28;20175;-83
2021/09/06 00:58:26;;;;;;;1.90;1.50;;;19.60;51.60;;;;;;5052384;28;20619;-81
2021/09/06 01:00:54;;;;;;;1.75;1.42;;;19.50;51.80;;;;;;5052780;28;20183;-83
2021/09/06 01:03:21;;;;;;;1.80;1.40;;;19.50;51.60;;;;;;5036124;28;20179;-80
2021/09/06 01:05:51;;;;;;;1.88;1.38;;;19.60;51.90;;;;;;5036312;28;20676;-82
2021/09/06 01:08:19;;;;;;;2.38;1.25;;;19.50;51.80;;;;;;5035023;28;20182;-81
2021/09/06 01:10:48;;;;;;;1.75;1.40;;;19.50;52.10;;;;;;5035144;28;20552;-80
2021/09/06 01:13:14;;;;;;;1.42;1.30;;;19.50;52.10;;;;;;5035178;28;20268;-81
2021/09/06 01:15:41;;;;;;;1.55;1.10;;;19.50;52.20;;;;;;5036283;28;20174;-83
2021/09/06 01:18:08;;;;;;;1.23;1.13;;;19.50;52.20;;;;;;5051854;28;20579;-81
2021/09/06 01:20:39;;;;;;;2.05;1.52;;;19.50;52.30;;;;;;5051767;28;20232;-84
2021/09/06 01:23:08;;;;;;;1.38;1.27;;;19.50;52.40;;;;;;5052015;28;20213;-80
2021/09/06 01:25:35;;;;;;;1.75;1.20;;;19.50;52.50;;;;;;5051323;28;20228;-82
2021/09/06 01:28:02;;;;;;;2.17;1.30;;;19.50;52.30;;;;;;5051331;28;20613;-83
2021/09/06 01:30:28;;;;;;;1.40;1.20;;;19.50;52.30;;;;;;5051282;28;20642;-82
2021/09/06 01:32:54;;;;;;;1.95;1.40;;;19.50;52.30;;;;;;5050748;28;20197;-82
2021/09/06 01:35:24;;;;;;;1.65;1.30;;;19.50;52.30;;;;;;5035819;28;20179;-81
2021/09/06 01:37:51;;;;;;;1.13;1.02;;;19.60;52.30;;;;;;5051745;28;20240;-81
2021/09/06 01:40:20;;;;;;;2.00;1.35;;;19.50;52.30;;;;;;5051645;28;20261;-82
2021/09/06 01:42:47;;;;;;;1.67;1.30;;;19.50;52.30;;;;;;5035225;28;20190;-81
2021/09/06 01:45:17;;;;;;;2.15;1.38;;;19.50;52.40;;;;;;5051770;28;20182;-82
2021/09/06 01:47:44;;;;;;;1.80;1.38;;;19.50;52.20;;;;;;5035573;28;20225;-82
2021/09/06 01:50:16;;;;;;;1.52;1.10;;;19.50;52.50;;;;;;5051612;28;20593;-81
2021/09/06 01:52:42;;;;;;;1.60;1.40;;;19.50;52.30;;;;;;5034897;28;20190;-82
2021/09/06 01:55:13;;;;;;;1.50;1.33;;;19.50;52.30;;;;;;5052288;28;20701;-80
2021/09/06 01:57:43;;;;;;;2.35;1.05;;;19.50;52.30;;;;;;5051385;28;20286;-81
2021/09/06 02:00:09;;;;;;;1.33;1.10;;;19.50;52.50;;;;;;5034652;28;20182;-80
2021/09/06 02:02:35;;;;;;;1.70;1.45;;;19.50;52.30;;;;;;5052559;28;20167;-83
2021/09/06 02:05:06;;;;;;;1.30;1.20;;;19.50;52.30;;;;;;5035703;28;20166;-80
2021/09/06 02:07:36;;;;;;;1.27;1.13;;;19.50;52.50;;;;;;5034332;28;20189;-83
2021/09/06 02:10:04;;;;;;;1.73;1.35;;;19.40;52.50;;;;;;5035282;28;20221;-79
2021/09/06 02:12:30;;;;;;;1.90;1.55;;;19.50;52.50;;;;;;5036313;28;20157;-82
2021/09/06 02:14:56;;;;;;;1.73;1.10;;;19.40;52.40;;;;;;5035126;28;20273;-83
2021/09/06 02:17:22;;;;;;;1.52;1.20;;;19.40;52.50;;;;;;5035323;28;20183;-83
2021/09/06 02:19:52;;;;;;;1.20;1.10;;;19.50;52.60;;;;;;5035416;28;20159;-83
2021/09/06 02:22:18;;;;;;;1.83;1.08;;;19.40;52.60;;;;;;5050722;28;20202;-84
2021/09/06 02:24:50;;;;;;;1.80;1.20;;;19.40;52.60;;;;;;5036720;28;20182;-83
2021/09/06 02:27:16;;;;;;;2.08;1.17;;;19.50;52.60;;;;;;5034507;28;20225;-80
2021/09/06 02:29:46;;;;;;;1.40;1.30;;;19.50;52.60;;;;;;5035330;28;20175;-81
2021/09/06 02:32:16;;;;;;;2.35;1.48;;;19.40;52.50;;;;;;5050959;28;20551;-80
2021/09/06 02:34:42;;;;;;;2.83;1.50;;;19.40;52.60;;;;;;5051585;28;20202;-80
2021/09/06 02:37:08;;;;;;;1.70;1.35;;;19.40;53.00;;;;;;5036307;28;20178;-81
2021/09/06 02:39:36;;;;;;;1.58;1.35;;;19.40;52.50;;;;;;5039298;28;20270;-83
2021/09/06 02:42:03;;;;;;;1.52;1.27;;;19.40;52.50;;;;;;5038360;28;20186;-82
2021/09/06 02:44:30;;;;;;;1.55;1.17;;;19.40;52.70;;;;;;5039082;28;20603;-81
2021/09/06 02:47:00;;;;;;;1.63;1.40;;;19.40;52.50;;;;;;5039186;28;20819;-80
2021/09/06 02:49:30;;;;;;;1.42;1.30;;;19.40;53.20;;;;;;5054829;28;20193;-81
2021/09/06 02:52:00;;;;;;;2.85;1.45;;;19.40;52.70;;;;;;5037688;28;20183;-82
2021/09/06 02:54:30;;;;;;;1.45;1.02;;;19.40;52.70;;;;;;5037584;28;20190;-79
2021/09/06 02:56:56;;;;;;;1.60;1.10;;;19.40;52.70;;;;;;5037832;28;20588;-83
2021/09/06 02:59:26;;;;;;;1.48;1.20;;;19.40;52.70;;;;;;5038607;28;20238;-82
2021/09/06 03:01:52;;;;;;;1.70;1.27;;;19.50;52.70;;;;;;5054283;28;20179;-82
2021/09/06 03:04:18;;;;;;;1.70;1.30;;;19.40;52.60;;;;;;5038289;28;20606;-83
2021/09/06 03:06:46;;;;;;;2.20;1.52;;;19.40;52.70;;;;;;5038033;28;20167;-82
2021/09/06 03:09:17;;;;;;;1.48;1.25;;;19.40;52.70;;;;;;5054565;28;20704;-80
2021/09/06 03:11:51;;;;;;;1.90;1.30;;;19.40;52.80;;;;;;5053723;28;20713;-81
2021/09/06 03:14:18;;;;;;;1.50;1.30;;;19.40;52.70;;;;;;5053838;28;20253;-83
2021/09/06 03:16:50;;;;;;;1.52;1.25;;;19.40;52.90;;;;;;5053881;28;20217;-81
2021/09/06 03:19:18;;;;;;;1.65;1.35;;;19.40;52.80;;;;;;5037181;28;20274;-81
2021/09/06 03:21:48;;;;;;;2.30;1.20;;;19.40;52.80;;;;;;5053938;28;20241;-82
2021/09/06 03:24:15;;;;;;;1.50;1.30;;;19.30;52.80;;;;;;5053832;28;20240;-80
2021/09/06 03:26:46;;;;;;;1.45;1.30;;;19.40;52.90;;;;;;5053337;28;20611;-80
2021/09/06 03:29:17;;;;;;;2.28;1.33;;;19.40;52.90;;;;;;5053610;28;20186;-81
2021/09/06 03:31:44;;;;;;;2.35;1.50;;;19.40;52.90;;;;;;5036992;28;20179;-81
2021/09/06 03:34:11;;;;;;;1.77;1.27;;;19.40;52.90;;;;;;5053534;28;20222;-83
2021/09/06 03:36:38;;;;;;;1.83;1.38;;;19.40;53.00;;;;;;5053180;28;20552;-82
2021/09/06 03:39:05;;;;;;;1.27;1.17;;;19.40;53.00;;;;;;5054782;28;20242;-80
2021/09/06 03:41:33;;;;;;;1.70;1.33;;;19.40;52.90;;;;;;5054697;28;20202;-83
2021/09/06 03:44:04;;;;;;;1.48;1.38;;;19.40;52.90;;;;;;5038201;28;20649;-80
2021/09/06 03:46:30;;;;;;;2.25;1.25;;;19.40;53.00;;;;;;5054816;28;20660;-80
2021/09/06 03:48:57;;;;;;;1.30;1.20;;;19.30;52.90;;;;;;5054556;28;20183;-81
2021/09/06 03:51:24;;;;;;;1.50;1.30;;;19.30;52.90;;;;;;5054429;28;20190;-80
2021/09/06 03:53:51;;;;;;;1.10;1.00;;;19.30;52.90;;;;;;5054425;28;20190;-81
2021/09/06 03:56:17;;;;;;;2.13;1.50;;;19.40;53.00;;;;;;5038502;28;20250;-81
2021/09/06 03:58:44;;;;;;;1.30;1.10;;;19.30;52.90;;;;;;5038147;28;20193;-82
2021/09/06 04:01:10;;;;;;;1.42;1.30;;;19.40;53.00;;;;;;5037992;28;20538;-82
2021/09/06 04:03:41;;;;;;;1.27;1.17;;;19.40;53.00;;;;;;5038199;28;20540;-82
2021/09/06 04:06:06;;;;;;;1.83;1.40;;;19.30;52.90;;;;;;5037855;28;20190;-83
2021/09/06 04:08:33;;;;;;;1.35;1.17;;;19.40;53.00;;;;;;5038239;28;20171;-80
2021/09/06 04:11:00;;;;;;;1.20;1.10;;;19.40;53.10;;;;;;5053478;28;20197;-79
2021/09/06 04:13:27;;;;;;;2.67;1.17;;;19.40;53.00;;;;;;5054207;28;20222;-80
2021/09/06 04:15:59;;;;;;;1.45;1.20;;;19.40;53.10;;;;;;5037137;28;20179;-80
2021/09/06 04:18:30;;;;;;;1.85;1.35;;;19.30;53.10;;;;;;5036932;28;20210;-80
2021/09/06 04:21:00;;;;;;;1.80;1.38;;;19.30;53.00;;;;;;5037519;28;20183;-81
2021/09/06 04:23:27;;;;;;;1.50;1.30;;;19.40;53.10;;;;;;5054788;28;20186;-82
2021/09/06 04:25:53;;;;;;;1.52;1.20;;;19.30;52.90;;;;;;5037547;28;20585;-81
2021/09/06 04:28:19;;;;;;;1.45;1.27;;;19.30;53.00;;;;;;5038029;28;20186;-80
2021/09/06 04:30:47;;;;;;;1.50;1.40;;;19.30;53.00;;;;;;5037846;28;20206;-82
2021/09/06 04:33:20;;;;;;;1.98;1.15;;;19.30;53.00;;;;;;5037417;28;20242;-81
2021/09/06 04:35:45;;;;;;;1.92;1.50;;;19.30;53.00;;;;;;5053535;28;20189;-80
2021/09/06 04:38:16;;;;;;;1.25;1.13;;;19.30;53.10;;;;;;5037156;28;20566;-80
2021/09/06 04:40:48;;;;;;;1.50;1.15;;;19.30;53.10;;;;;;5053392;28;20682;-82
2021/09/06 04:43:19;;;;;;;2.13;1.35;;;19.30;53.10;;;;;;5053232;28;20179;-82
2021/09/06 04:45:44;;;;;;;1.45;1.30;;;19.30;53.20;;;;;;5053016;28;20183;-83
2021/09/06 04:48:14;;;;;;;1.60;1.20;;;19.40;53.50;;;;;;5037086;28;20181;-80
2021/09/06 04:50:40;;;;;;;1.30;1.20;;;19.40;53.50;;;;;;5052632;28;20221;-80
2021/09/06 04:53:08;;;;;;;1.45;1.30;;;19.40;53.50;;;;;;5038325;28;20181;-80
2021/09/06 04:55:34;;;;;;;1.73;1.40;;;19.30;53.60;;;;;;5057571;28;20515;-80
2021/09/06 04:58:00;;;;;;;2.00;1.55;;;19.30;53.60;;;;;;5056503;28;20182;-81
2021/09/06 05:00:30;;;;;;;1.55;1.45;;;19.30;53.80;;;;;;5055847;28;20154;-80
2021/09/06 05:03:01;;;;;;;2.08;1.23;;;19.40;54.00;;;;;;5055272;28;20657;-80
2021/09/06 05:05:30;;;;;;;1.55;1.27;;;19.30;54.00;;;;;;5039643;28;20190;-83
2021/09/06 05:07:58;;;;;;;1.52;1.42;;;19.30;54.10;;;;;;5056306;28;20190;-81
2021/09/06 05:10:26;;;;;;;1.73;1.40;;;19.30;54.20;;;;;;5039316;28;20181;-82
2021/09/06 05:12:52;;;;;;;2.92;1.48;;;19.30;54.40;;;;;;5022631;28;20281;-80
2021/09/06 05:15:20;;;;;;;1.70;1.50;;;19.30;54.40;;;;;;5040550;28;20201;-81
2021/09/06 05:17:46;;;;;;;2.10;1.50;;;19.40;54.50;;;;;;5058118;28;20231;-81
2021/09/06 05:20:13;;;;;;;1.40;1.27;;;19.40;54.70;;;;;;5041238;28;20163;-82
2021/09/06 05:22:43;;;;;;;1.38;1.27;;;19.40;54.60;;;;;;5041904;28;20166;-81
2021/09/06 05:25:12;;;;;;;1.80;1.40;;;19.40;54.80;;;;;;5056762;28;20325;-82
2021/09/06 05:27:38;;;;;;;2.33;1.70;;;19.40;54.90;;;;;;5023577;28;20193;-82
2021/09/06 05:30:05;;;;;;;1.90;1.60;;;19.40;55.00;;;;;;5057072;28;20621;-83
2021/09/06 05:32:32;;;;;;;2.95;1.60;;;19.40;55.10;;;;;;5057404;28;20617;-83
2021/09/06 05:34:57;;;;;;;1.38;1.27;;;19.40;55.20;;;;;;5038960;28;20496;-80
2021/09/06 05:37:23;;;;;;;2.40;1.30;;;19.40;55.30;;;;;;5056851;28;20189;-80
2021/09/06 05:39:49;;;;;;;1.67;1.50;;;19.40;55.30;;;;;;5055812;28;20176;-83
2021/09/06 05:42:19;;;;;;;1.92;1.50;;;19.40;55.50;;;;;;5039128;28;20181;-81
2021/09/06 05:44:49;;;;;;;2.10;1.65;;;19.40;55.50;;;;;;5037873;28;20638;-81
2021/09/06 05:47:17;;;;;;;2.45;1.90;;;19.40;55.50;;;;;;5022000;28;20177;-84
2021/09/06 05:49:43;;;;;;;1.70;1.60;;;19.40;55.80;;;;;;5037566;28;20182;-85
2021/09/06 05:52:10;;;;;;;2.03;1.52;;;19.40;55.90;;;;;;5054237;28;20671;-83
2021/09/06 05:54:36;;;;;;;2.30;1.73;;;19.30;55.80;;;;;;5037420;28;20186;-82
2021/09/06 05:57:02;;;;;;;3.25;1.80;;;19.40;56.20;;;;;;5057224;28;20218;-80
2021/09/06 05:59:28;;;;;;;2.67;1.65;;;19.40;56.50;;;;;;5039589;28;20162;-80
2021/09/06 06:01:55;;;;;;;2.20;1.65;;;19.40;56.80;;;;;;5056302;28;20150;-81
2021/09/06 06:04:20;;;;;;;1.98;1.60;;;19.40;56.80;;;;;;5022359;28;20162;-80
2021/09/06 06:06:47;;;;;;;2.67;1.90;;;19.40;56.90;;;;;;5059164;28;20181;-83
2021/09/06 06:09:13;;;;;;;2.20;1.80;;;19.50;57.50;;;;;;5024314;28;20249;-83
2021/09/06 06:11:40;;;;;;;2.47;2.00;;;19.50;56.90;;;;;;5059305;28;20628;-80
2021/09/06 06:14:06;;;;;;;1.98;1.58;;;19.50;56.80;;;;;;5045041;28;20256;-80
2021/09/06 06:16:32;;;;;;;2.67;1.90;;;19.60;56.90;;;;;;5061530;28;20154;-81
2021/09/06 06:18:58;;;;;;;3.38;2.03;;;19.60;57.00;;;;;;5059093;28;20288;-80
2021/09/06 06:21:24;;;;;;;2.28;1.80;;;19.50;56.90;;;;;;5058006;28;20628;-84
2021/09/06 06:23:50;;;;;;;2.50;1.88;;;19.50;57.20;;;;;;5062225;28;20184;-83
2021/09/06 06:26:16;;;;;;;2.25;1.90;;;19.60;56.90;;;;;;5062227;28;20289;-80
2021/09/06 06:28:42;;;;;;;3.33;2.10;;;19.60;56.90;;;;;;5052095;28;20221;-80
2021/09/06 06:31:09;;;;;;;2.35;2.05;;;19.50;56.80;;;;;;5045875;28;20178;-81
2021/09/06 06:33:35;;;;;;;2.88;1.60;;;19.50;56.80;;;;;;5027308;28;20196;-79
2021/09/06 06:36:01;;;;;;;2.25;1.83;;;19.60;56.90;;;;;;5045256;28;20246;-79
2021/09/06 06:38:28;;;;;;;2.00;1.70;;;19.70;56.60;;;;;;5045338;28;20194;-78
2021/09/06 06:40:57;;;;;;;2.35;1.95;;;19.70;56.70;;;;;;5028484;28;20174;-80
2021/09/06 06:43:23;;;;;;;2.42;1.80;;;19.70;56.60;;;;;;5045467;28;20175;-80
2021/09/06 06:45:53;;;;;;;2.25;2.03;;;19.70;56.60;;;;;;5045081;28;20182;-81
2021/09/06 06:48:18;;;;;;;3.03;1.95;;;19.70;56.40;;;;;;5043552;28;20237;-81
2021/09/06 06:50:44;;;;;;;1.83;1.60;;;19.70;56.60;;;;;;5042872;28;20589;-81
2021/09/06 06:53:10;;;;;;;2.50;2.00;;;19.70;56.60;;;;;;5025124;28;20174;-81
2021/09/06 06:55:37;;;;;;;3.40;2.03;;;19.70;56.70;;;;;;5041193;28;20167;-80
2021/09/06 06:58:06;;;;;;;3.17;1.92;;;19.60;56.60;;;;;;5023820;28;20229;-80
2021/09/06 07:00:36;;;;;;;4.47;2.10;;;19.60;56.60;;;;;;5038110;28;20285;-83
2021/09/06 07:03:02;;;;;;;5.88;2.00;;;19.70;56.60;;;;;;5020047;28;20614;-84
2021/09/06 07:05:31;;;;;;;2.05;1.77;;;19.70;56.40;;;;;;5039904;28;20155;-81
2021/09/06 07:08:00;;;;;;;1.98;1.80;;;19.80;56.60;;;;;;5020563;28;20214;-83
2021/09/06 07:10:29;;;;;;;1.88;1.70;;;19.80;56.60;;;;;;5039596;28;20260;-82
2021/09/06 07:12:56;;;;;;;2.00;1.80;;;19.80;56.60;;;;;;5042457;28;20277;-80
2021/09/06 07:15:24;;;;;;;2.60;1.90;;;19.70;56.70;;;;;;5044745;28;20203;-82
2021/09/06 07:17:54;;;;;;;2.85;2.03;;;19.60;56.90;;;;;;5025346;28;20206;-81
2021/09/06 07:20:26;;;;;;;6.15;2.35;;;19.70;57.30;;;;;;5042549;28;20183;-81
2021/09/06 07:22:55;;;;;;;2.90;1.73;;;19.60;57.20;;;;;;5034255;28;20193;-84
2021/09/06 07:25:23;;;;;;;3.15;2.00;;;19.70;57.40;;;;;;5018181;28;20233;-84
2021/09/06 07:27:51;;;;;;;2.42;1.92;;;19.70;57.40;;;;;;5037943;28;20198;-82
2021/09/06 07:30:20;;;;;;;2.38;2.10;;;19.70;57.30;;;;;;5035280;28;20201;-83
2021/09/06 07:32:48;;;;;;;2.15;1.90;;;19.70;57.30;;;;;;5019872;28;20206;-83
2021/09/06 07:35:16;;;;;;;3.00;1.80;;;19.70;57.60;;;;;;5018666;28;20278;-84
2021/09/06 07:37:46;;;;;;;2.40;2.20;;;19.60;57.70;;;;;;5016844;28;20296;-83
2021/09/06 07:40:14;;;;;;;2.75;2.40;;;19.60;57.60;;;;;;5032645;28;20534;-83
2021/09/06 07:42:42;;;;;;;2.40;1.90;;;19.70;58.00;;;;;;5033095;28;20293;-83
2021/09/06 07:45:10;;;;;;;2.20;1.98;;;19.70;57.90;;;;;;5019996;28;20293;-83
2021/09/06 07:47:37;;;;;;;2.50;2.00;;;19.70;58.10;;;;;;5036210;28;20195;-83
2021/09/06 07:50:07;;;;;;;2.67;2.13;;;19.70;58.20;;;;;;5034185;28;20183;-85
2021/09/06 07:52:35;;;;;;;3.05;2.10;;;19.70;58.20;;;;;;5035410;28;20183;-83
2021/09/06 07:55:03;;;;;;;4.70;2.08;;;19.70;58.20;;;;;;5033854;28;20194;-84
2021/09/06 07:57:31;;;;;;;5.10;2.30;;;19.70;58.10;;;;;;5014510;28;20717;-84
2021/09/06 07:59:58;;;;;;;5.40;2.38;;;19.70;58.30;;;;;;5031769;28;20183;-83
2021/09/06 08:02:28;;;;;;;11.43;2.33;;;19.70;58.20;;;;;;5038036;28;20179;-83
2021/09/06 08:04:58;;;;;;;8.82;2.63;;;19.70;58.60;;;;;;5019004;28;20573;-83
2021/09/06 08:07:26;;;;;;;8.82;2.40;;;19.70;58.40;;;;;;5068329;28;20317;-82
2021/09/06 08:09:53;;;;;;;8.85;2.72;;;19.70;58.40;;;;;;5035827;28;20185;-80
2021/09/06 08:12:21;;;;;;;6.68;2.45;;;19.70;58.70;;;;;;5034478;28;20262;-82
2021/09/06 08:14:47;;;;;;;8.38;2.67;;;19.70;58.60;;;;;;5041639;28;20220;-83
2021/09/06 08:17:20;;;;;;;6.43;2.72;;;19.70;58.60;;;;;;5026095;28;20178;-83
2021/09/06 08:19:45;;;;;;;5.25;2.85;;;19.70;58.80;;;;;;5026469;28;20206;-83
2021/09/06 08:22:11;;;;;;;7.70;2.38;;;19.70;59.60;;;;;;5060272;28;20169;-82
2021/09/06 08:24:41;;;;;;;9.02;2.38;;;19.70;58.80;;;;;;5065655;28;20239;-83
2021/09/06 08:27:06;;;;;;;5.45;2.50;;;19.80;58.90;;;;;;5061631;28;20158;-82
2021/09/06 08:29:34;;;;;;;5.55;2.30;;;19.80;58.70;;;;;;5060347;28;20245;-82
2021/09/06 08:32:05;;;;;;;8.45;2.50;;;19.70;59.10;;;;;;5058057;28;20157;-85
2021/09/06 08:34:31;;;;;;;3.78;2.20;;;19.80;59.00;;;;;;5058023;28;20268;-83
2021/09/06 08:36:57;;;;;;;5.50;2.22;;;19.80;59.20;;;;;;5039672;28;20646;-83
2021/09/06 08:39:23;;;;;;;10.20;2.30;;;19.80;59.40;;;;;;5036645;28;20194;-83
2021/09/06 08:41:49;;;;;;;5.47;2.22;;;19.80;59.20;;;;;;5052690;28;20702;-82
2021/09/06 08:44:15;;;;;;;10.07;2.60;;;19.70;59.70;;;;;;5038785;28;20158;-83
2021/09/06 08:46:41;;;;;;;6.82;2.53;;;19.80;59.40;;;;;;5035273;28;20229;-82
2021/09/06 08:49:07;;;;;;;5.00;2.38;;;19.80;59.40;;;;;;5035076;28;20194;-82
2021/09/06 08:51:34;;;;;;;10.35;2.45;;;19.80;59.60;;;;;;5034148;28;20163;-82
2021/09/06 08:53:59;;;;;;;8.68;2.47;;;19.80;59.40;;;;;;5033945;28;20662;-82
2021/09/06 08:56:26;;;;;;;7.65;2.92;;;19.80;59.60;;;;;;5033611;28;20197;-81
2021/09/06 08:58:54;;;;;;;7.47;2.67;;;19.90;59.60;;;;;;5031803;28;20206;-83
2021/09/06 09:01:21;;;;;;;5.25;2.70;;;19.80;59.70;;;;;;5053891;28;20183;-79
2021/09/06 09:03:48;;;;;;;5.63;2.70;;;19.80;59.70;;;;;;5057958;28;20199;-79
2021/09/06 09:06:16;;;;;;;6.15;2.75;;;19.80;59.80;;;;;;5054171;28;20178;-83
2021/09/06 09:08:46;;;;;;;6.65;2.72;;;19.80;60.30;;;;;;5048002;28;20198;-82
2021/09/06 09:11:13;;;;;;;9.15;2.63;;;19.90;60.00;;;;;;5047480;28;20187;-83
2021/09/06 09:13:40;;;;;;;4.97;2.40;;;19.90;60.20;;;;;;5046430;28;20234;-83
2021/09/06 09:16:08;;;;;;;10.02;2.72;;;19.90;60.10;;;;;;5031197;28;20189;-82
2021/09/06 09:18:35;;;;;;;4.45;2.60;;;19.90;60.40;;;;;;5033653;28;20226;-85
2021/09/06 09:21:05;;;;;;;4.93;2.53;;;19.80;60.00;;;;;;5031918;28;20183;-84
2021/09/06 09:23:39;;;;;;;5.70;2.60;;;19.80;60.40;;;;;;5017030;28;20224;-85
2021/09/06 09:26:06;;;;;;;9.13;2.88;;;19.80;60.40;;;;;;5031620;28;20294;-83
2021/09/06 09:28:35;;;;;;;7.15;2.40;;;19.80;60.70;;;;;;5031068;28;20187;-86
2021/09/06 09:31:07;;;;;;;4.47;2.40;;;19.80;60.90;;;;;;5030895;28;20788;-83
2021/09/06 09:33:52;;;;;;;9.02;2.53;;;19.80;61.00;;;;;;5031017;28;20701;-84
2021/09/06 09:36:32;;;;;;;4.72;2.50;;;19.80;61.20;;;;;;5014840;28;20178;-83
2021/09/06 09:39:12;;;;;;;4.82;2.80;;;19.80;61.00;;;;;;5015330;28;20194;-86
2021/09/06 09:41:40;;;;;;;6.60;2.58;;;19.80;61.30;;;;;;5015004;28;20649;-83
2021/09/06 09:44:10;;;;;;;4.57;2.42;;;19.80;61.40;;;;;;5015056;28;20194;-84
2021/09/06 09:46:37;;;;;;;5.22;2.45;;;19.80;61.40;;;;;;5017510;28;20545;-84
2021/09/06 09:49:13;;;;;;;6.55;2.30;;;19.80;62.00;;;;;;5031904;28;20167;-85
2021/09/06 09:51:39;;;;;;;6.97;2.85;;;19.80;61.30;;;;;;5032508;28;20587;-85
2021/09/06 09:54:05;;;;;;;2.90;2.35;;;19.80;61.20;;;;;;5050377;28;20177;-84
2021/09/06 09:56:31;;;;;;;5.10;2.42;;;19.90;61.30;;;;;;5035669;28;20177;-85
2021/09/06 09:58:59;;;;;;;5.22;2.38;;;20.00;61.20;;;;;;5051937;28;20286;-84
2021/09/06 10:01:36;;;;;;;5.25;2.33;;;19.90;61.00;;;;;;5051891;28;20225;-85
2021/09/06 10:04:03;;;;;;;6.40;2.50;;;19.90;61.20;;;;;;5051870;28;20168;-83
2021/09/06 10:06:31;;;;;;;4.25;2.40;;;19.90;60.90;;;;;;5052042;28;20162;-85
2021/09/06 10:08:57;;;;;;;3.67;2.55;;;19.90;61.10;;;;;;5051738;28;20683;-83
2021/09/06 10:11:39;;;;;;;7.13;2.70;;;19.90;61.20;;;;;;5051815;28;20158;-83
2021/09/06 10:14:21;;;;;;;4.70;2.30;;;19.90;61.40;;;;;;5049986;28;20220;-85
2021/09/06 10:17:02;;;;;;;6.78;2.53;;;19.80;61.30;;;;;;5050166;28;20260;-83
2021/09/06 10:19:39;;;;;;;4.95;2.20;;;19.90;61.10;;;;;;5050567;28;20182;-85
2021/09/06 10:22:29;;;;;;;3.58;2.25;;;20.00;60.60;;;;;;5049899;28;20497;-85
2021/09/06 10:24:58;;;;;;;5.75;2.42;;;20.00;60.50;;;;;;5050005;28;20252;-85
2021/09/06 10:27:30;;;;;;;4.93;2.70;;;20.00;60.20;;;;;;5051094;28;20165;-85
2021/09/06 10:30:14;;;;;;;4.68;2.22;;;20.10;60.00;;;;;;5051560;28;20208;-84
2021/09/06 10:32:45;;;;;;;3.42;2.20;;;20.10;60.00;;;;;;5035101;28;20219;-85
2021/09/06 10:35:24;;;;;;;5.13;2.33;;;20.10;60.10;;;;;;5052019;28;20162;-85
2021/09/06 10:38:08;;;;;;;6.40;2.33;;;20.20;59.90;;;;;;5034890;28;20622;-85
2021/09/06 10:40:36;;;;;;;3.97;2.60;;;20.20;59.90;;;;;;5051557;28;20621;-84
2021/09/06 10:43:20;;;;;;;3.35;2.63;;;20.20;60.20;;;;;;5051724;28;20197;-84
2021/09/06 10:45:51;;;;;;;5.28;2.13;;;20.10;60.30;;;;;;5051460;28;20166;-85
2021/09/06 10:48:29;;;;;;;3.97;2.30;;;20.10;60.70;;;;;;5051624;28;20158;-83
2021/09/06 10:50:55;;;;;;;5.07;2.28;;;20.00;60.90;;;;;;5051728;28;20150;-85
2021/09/06 10:53:26;;;;;;;4.85;2.40;;;19.90;61.40;;;;;;5034827;28;20265;-85
2021/09/06 10:55:53;;;;;;;4.40;2.10;;;20.00;61.50;;;;;;5052320;28;20230;-84
2021/09/06 10:58:21;;;;;;;3.08;2.30;;;19.90;61.80;;;;;;5036641;28;20186;-84
2021/09/06 11:00:50;;;;;;;3.78;2.30;;;19.90;61.90;;;;;;5055218;28;20150;-83
2021/09/06 11:03:16;;;;;;;4.00;2.30;;;19.80;62.20;;;;;;5058027;28;20169;-85
2021/09/06 11:05:56;;;;;;;3.20;2.22;;;19.80;62.40;;;;;;5058909;28;20161;-85
2021/09/06 11:08:37;;;;;;;3.58;2.15;;;19.80;62.60;;;;;;5042444;28;20161;-85
2021/09/06 11:11:09;;;;;;;3.53;2.15;;;19.80;62.60;;;;;;5060476;28;20236;-84
2021/09/06 11:13:41;;;;;;;3.38;2.28;;;19.80;62.50;;;;;;5058659;28;20305;-85
2021/09/06 11:16:09;;;;;;;2.65;2.10;;;19.80;62.60;;;;;;5042474;28;20280;-85
2021/09/06 11:18:38;;;;;;;3.00;1.98;;;19.80;62.80;;;;;;5042281;28;20605;-85
2021/09/06 11:21:04;;;;;;;3.88;2.05;;;19.80;62.90;;;;;;5057171;28;20219;-83
2021/09/06 11:23:36;;;;;;;3.97;2.20;;;19.80;63.10;;;;;;5059885;28;20154;-83
2021/09/06 11:26:04;;;;;;;2.88;2.13;;;19.80;63.10;;;;;;5085534;28;20264;-83
2021/09/06 11:28:43;;;;;;;3.45;2.60;;;19.80;63.20;;;;;;5054229;28;20227;-82
2021/09/06 11:31:09;;;;;;;2.85;2.17;;;19.80;63.20;;;;;;5069472;28;20200;-85
2021/09/06 11:33:36;;;;;;;3.15;2.00;;;19.80;63.20;;;;;;5069975;28;20180;-84
2021/09/06 11:36:02;;;;;;;2.75;2.30;;;19.90;63.20;;;;;;5042450;28;20170;-83
2021/09/06 11:38:28;;;;;;;3.53;1.90;;;19.80;63.20;;;;;;5041703;28;20194;-85
2021/09/06 11:40:59;;;;;;;3.10;2.13;;;19.80;63.20;;;;;;5076392;28;20165;-86
2021/09/06 11:43:26;;;;;;;2.92;2.28;;;19.80;63.40;;;;;;5032192;28;20209;-83
2021/09/06 11:45:59;;;;;;;3.25;2.28;;;19.70;63.50;;;;;;5053769;28;20182;-81
2021/09/06 11:48:25;;;;;;;3.45;2.28;;;19.70;63.50;;;;;;5038874;28;20220;-85
2021/09/06 11:50:51;;;;;;;3.15;2.30;;;19.80;63.50;;;;;;5020919;28;20162;-84
2021/09/06 11:53:22;;;;;;;3.50;2.20;;;19.80;63.40;;;;;;5038637;28;20251;-85
2021/09/06 11:55:55;;;;;;;3.25;2.50;;;19.80;63.50;;;;;;5055056;28;20186;-83
2021/09/06 11:58:27;;;;;;;4.10;2.65;;;19.80;63.40;;;;;;5025620;28;20676;-81
2021/09/06 12:01:03;;;;;;;2.63;2.28;;;19.80;63.50;;;;;;5042343;28;20205;-83
2021/09/06 12:03:33;;;;;;;3.95;2.40;;;19.80;63.60;;;;;;5064709;28;20236;-83
2021/09/06 12:06:08;;;;;;;3.03;2.20;;;19.70;63.60;;;;;;5049518;28;20204;-86
2021/09/06 12:08:34;;;;;;;4.30;3.03;;;19.70;63.60;;;;;;5032309;28;20323;-84
2021/09/06 12:11:10;;;;;;;3.60;2.22;;;19.80;63.60;;;;;;5039770;28;20177;-84
2021/09/06 12:13:36;;;;;;;2.75;2.30;;;19.80;63.60;;;;;;5031374;28;20289;-83
2021/09/06 12:16:05;;;;;;;3.20;2.22;;;19.80;63.80;;;;;;5031640;28;20209;-85
2021/09/06 12:18:36;;;;;;;3.03;2.20;;;19.70;63.80;;;;;;5058363;28;20186;-83
2021/09/06 12:21:04;;;;;;;3.95;2.40;;;19.70;63.90;;;;;;5044188;28;20181;-85
2021/09/06 12:23:33;;;;;;;6.50;2.35;;;19.70;63.90;;;;;;5042729;28;20166;-83
2021/09/06 12:25:59;;;;;;;2.78;2.38;;;19.70;63.90;;;;;;5043671;28;20162;-84
2021/09/06 12:28:25;;;;;;;5.47;2.58;;;19.70;63.90;;;;;;5062215;28;20170;-83
2021/09/06 12:31:02;;;;;;;3.08;2.40;;;19.70;63.80;;;;;;5064499;28;20154;-83
2021/09/06 12:33:29;;;;;;;3.35;2.50;;;19.70;63.90;;;;;;5064352;28;20181;-84
2021/09/06 12:36:00;;;;;;;4.18;2.40;;;19.70;63.90;;;;;;5045069;28;20173;-86
2021/09/06 12:38:26;;;;;;;4.55;2.50;;;19.70;63.80;;;;;;5004872;28;20245;-85
2021/09/06 12:40:58;;;;;;;3.28;2.40;;;19.80;63.60;;;;;;4991288;28;20277;-85
2021/09/06 12:43:24;;;;;;;4.28;2.70;;;19.80;63.70;;;;;;4990107;28;20175;-87
2021/09/06 12:45:50;;;;;;;3.33;2.50;;;19.70;63.70;;;;;;4988955;28;20168;-87
2021/09/06 12:48:16;;;;;;;3.25;2.53;;;19.80;64.50;;;;;;4989737;28;20639;-84
2021/09/06 12:50:43;;;;;;;2.90;2.35;;;19.90;63.70;;;;;;4991525;28;20198;-85
2021/09/06 12:53:09;;;;;;;3.22;2.60;;;19.80;63.50;;;;;;4974337;28;20163;-82